sensor_id;sensor_type;location;lat;lon;timestamp;temperature;humidity
38333;DHT22;25748;46.670;14.272;2022-08-19T00:01:45;19.20;86.30
38333;DHT22;25748;46.670;14.272;2022-08-19T00:04:13;19.20;87.00
38333;DHT22;25748;46.670;14.272;2022-08-19T00:06:40;19.20;88.00
38333;DHT22;25748;46.670;14.272;2022-08-19T00:09:08;19.20;88.00
38333;DHT22;25748;46.670;14.272;2022-08-19T00:11:34;19.20;88.50
38333;DHT22;25748;46.670;14.272;2022-08-19T00:14:04;19.10;88.60
38333;DHT22;25748;46.670;14.272;2022-08-19T00:16:30;19.20;88.70
38333;DHT22;25748;46.670;14.272;2022-08-19T00:18:56;19.20;88.60
38333;DHT22;25748;46.670;14.272;2022-08-19T00:21:23;19.10;88.20
38333;DHT22;25748;46.670;14.272;2022-08-19T00:23:49;19.10;88.30
38333;DHT22;25748;46.670;14.272;2022-08-19T00:26:15;19.20;88.20
38333;DHT22;25748;46.670;14.272;2022-08-19T00:28:40;19.20;88.10
38333;DHT22;25748;46.670;14.272;2022-08-19T00:31:07;19.20;88.20
38333;DHT22;25748;46.670;14.272;2022-08-19T00:33:33;19.10;88.00
38333;DHT22;25748;46.670;14.272;2022-08-19T00:36:00;19.10;88.70
38333;DHT22;25748;46.670;14.272;2022-08-19T00:38:26;19.20;88.30
38333;DHT22;25748;46.670;14.272;2022-08-19T00:40:52;19.20;88.30
38333;DHT22;25748;46.670;14.272;2022-08-19T00:43:23;19.10;88.50
38333;DHT22;25748;46.670;14.272;2022-08-19T00:45:49;19.10;88.50
38333;DHT22;25748;46.670;14.272;2022-08-19T00:48:16;19.10;88.40
38333;DHT22;25748;46.670;14.272;2022-08-19T00:50:43;19.20;88.20
38333;DHT22;25748;46.670;14.272;2022-08-19T00:53:14;19.10;87.90
38333;DHT22;25748;46.670;14.272;2022-08-19T00:55:41;19.10;88.50
38333;DHT22;25748;46.670;14.272;2022-08-19T00:58:11;19.00;89.10
38333;DHT22;25748;46.670;14.272;2022-08-19T01:00:38;19.00;89.00
38333;DHT22;25748;46.670;14.272;2022-08-19T01:03:06;18.90;89.10
38333;DHT22;25748;46.670;14.272;2022-08-19T01:05:33;18.90;89.40
38333;DHT22;25748;46.670;14.272;2022-08-19T01:08:01;18.90;89.30
38333;DHT22;25748;46.670;14.272;2022-08-19T01:10:31;18.90;89.20
38333;DHT22;25748;46.670;14.272;2022-08-19T01:12:58;18.80;88.60
38333;DHT22;25748;46.670;14.272;2022-08-19T01:15:29;18.80;88.70
38333;DHT22;25748;46.670;14.272;2022-08-19T01:17:55;18.70;88.80
38333;DHT22;25748;46.670;14.272;2022-08-19T01:20:23;18.70;88.70
38333;DHT22;25748;46.670;14.272;2022-08-19T01:22:53;18.70;88.50
38333;DHT22;25748;46.670;14.272;2022-08-19T01:25:21;18.70;88.50
38333;DHT22;25748;46.670;14.272;2022-08-19T01:27:50;18.70;88.70
38333;DHT22;25748;46.670;14.272;2022-08-19T01:30:22;18.60;88.60
38333;DHT22;25748;46.670;14.272;2022-08-19T01:32:50;18.60;88.40
38333;DHT22;25748;46.670;14.272;2022-08-19T01:35:16;18.60;88.60
38333;DHT22;25748;46.670;14.272;2022-08-19T01:37:58;18.50;88.70
38333;DHT22;25748;46.670;14.272;2022-08-19T01:40:27;18.50;89.30
38333;DHT22;25748;46.670;14.272;2022-08-19T01:42:54;18.50;90.00
38333;DHT22;25748;46.670;14.272;2022-08-19T01:45:22;18.50;90.00
38333;DHT22;25748;46.670;14.272;2022-08-19T01:47:48;18.50;90.00
38333;DHT22;25748;46.670;14.272;2022-08-19T01:50:14;18.60;90.10
38333;DHT22;25748;46.670;14.272;2022-08-19T01:52:42;18.60;90.00
38333;DHT22;25748;46.670;14.272;2022-08-19T01:55:11;18.60;90.10
38333;DHT22;25748;46.670;14.272;2022-08-19T01:57:37;18.60;90.20
38333;DHT22;25748;46.670;14.272;2022-08-19T02:00:07;18.60;90.10
38333;DHT22;25748;46.670;14.272;2022-08-19T02:02:34;18.60;90.10
38333;DHT22;25748;46.670;14.272;2022-08-19T02:04:59;18.60;90.00
38333;DHT22;25748;46.670;14.272;2022-08-19T02:07:25;18.60;89.90
38333;DHT22;25748;46.670;14.272;2022-08-19T02:09:51;18.70;89.90
38333;DHT22;25748;46.670;14.272;2022-08-19T02:12:17;18.60;89.50
38333;DHT22;25748;46.670;14.272;2022-08-19T02:14:43;18.60;89.80
38333;DHT22;25748;46.670;14.272;2022-08-19T02:17:08;18.60;90.00
38333;DHT22;25748;46.670;14.272;2022-08-19T02:19:34;18.60;90.00
38333;DHT22;25748;46.670;14.272;2022-08-19T02:22:00;18.60;90.00
38333;DHT22;25748;46.670;14.272;2022-08-19T02:24:27;18.60;90.30
38333;DHT22;25748;46.670;14.272;2022-08-19T02:26:53;18.60;90.80
38333;DHT22;25748;46.670;14.272;2022-08-19T02:29:19;18.60;91.00
38333;DHT22;25748;46.670;14.272;2022-08-19T02:31:46;18.60;91.40
38333;DHT22;25748;46.670;14.272;2022-08-19T02:34:11;18.70;91.40
38333;DHT22;25748;46.670;14.272;2022-08-19T02:36:37;18.60;91.70
38333;DHT22;25748;46.670;14.272;2022-08-19T02:39:03;18.70;91.60
38333;DHT22;25748;46.670;14.272;2022-08-19T02:41:32;18.70;91.70
38333;DHT22;25748;46.670;14.272;2022-08-19T02:43:59;18.70;91.40
38333;DHT22;25748;46.670;14.272;2022-08-19T02:46:28;18.70;91.40
38333;DHT22;25748;46.670;14.272;2022-08-19T02:48:57;18.70;91.40
38333;DHT22;25748;46.670;14.272;2022-08-19T02:51:43;18.60;91.70
38333;DHT22;25748;46.670;14.272;2022-08-19T02:54:11;18.60;91.80
38333;DHT22;25748;46.670;14.272;2022-08-19T02:56:39;18.60;92.00
38333;DHT22;25748;46.670;14.272;2022-08-19T02:59:07;18.60;92.30
38333;DHT22;25748;46.670;14.272;2022-08-19T03:01:38;18.60;92.50
38333;DHT22;25748;46.670;14.272;2022-08-19T03:04:09;18.60;92.50
38333;DHT22;25748;46.670;14.272;2022-08-19T03:06:41;18.60;92.20
38333;DHT22;25748;46.670;14.272;2022-08-19T03:09:07;18.60;92.30
38333;DHT22;25748;46.670;14.272;2022-08-19T03:11:34;18.60;92.20
38333;DHT22;25748;46.670;14.272;2022-08-19T03:14:01;18.60;92.10
38333;DHT22;25748;46.670;14.272;2022-08-19T03:16:29;18.60;92.20
38333;DHT22;25748;46.670;14.272;2022-08-19T03:18:56;18.50;92.10
38333;DHT22;25748;46.670;14.272;2022-08-19T03:21:26;18.50;92.10
38333;DHT22;25748;46.670;14.272;2022-08-19T03:23:57;18.50;92.00
38333;DHT22;25748;46.670;14.272;2022-08-19T03:26:23;18.60;92.00
38333;DHT22;25748;46.670;14.272;2022-08-19T03:28:49;18.50;91.70
38333;DHT22;25748;46.670;14.272;2022-08-19T03:31:17;18.50;91.60
38333;DHT22;25748;46.670;14.272;2022-08-19T03:33:44;18.50;91.50
38333;DHT22;25748;46.670;14.272;2022-08-19T03:36:19;18.50;91.60
38333;DHT22;25748;46.670;14.272;2022-08-19T03:38:50;18.40;91.60
38333;DHT22;25748;46.670;14.272;2022-08-19T03:41:19;18.50;91.70
38333;DHT22;25748;46.670;14.272;2022-08-19T03:43:46;18.50;91.80
38333;DHT22;25748;46.670;14.272;2022-08-19T03:46:28;18.50;91.80
38333;DHT22;25748;46.670;14.272;2022-08-19T03:48:56;18.40;91.90
38333;DHT22;25748;46.670;14.272;2022-08-19T03:51:25;18.50;92.00
38333;DHT22;25748;46.670;14.272;2022-08-19T03:53:53;18.50;92.10
38333;DHT22;25748;46.670;14.272;2022-08-19T03:56:19;18.50;92.10
38333;DHT22;25748;46.670;14.272;2022-08-19T03:58:45;18.50;92.00
38333;DHT22;25748;46.670;14.272;2022-08-19T04:01:18;18.50;91.80
38333;DHT22;25748;46.670;14.272;2022-08-19T04:03:45;18.50;91.70
38333;DHT22;25748;46.670;14.272;2022-08-19T04:06:23;18.40;91.70
38333;DHT22;25748;46.670;14.272;2022-08-19T04:08:51;18.40;91.70
38333;DHT22;25748;46.670;14.272;2022-08-19T04:11:25;18.40;91.80
38333;DHT22;25748;46.670;14.272;2022-08-19T04:13:52;18.40;91.90
38333;DHT22;25748;46.670;14.272;2022-08-19T04:16:20;18.40;92.00
38333;DHT22;25748;46.670;14.272;2022-08-19T04:18:47;18.40;91.90
38333;DHT22;25748;46.670;14.272;2022-08-19T04:21:21;18.40;91.90
38333;DHT22;25748;46.670;14.272;2022-08-19T04:23:47;18.40;92.00
38333;DHT22;25748;46.670;14.272;2022-08-19T04:26:14;18.40;92.20
38333;DHT22;25748;46.670;14.272;2022-08-19T04:28:42;18.40;92.20
38333;DHT22;25748;46.670;14.272;2022-08-19T04:31:16;18.40;92.30
38333;DHT22;25748;46.670;14.272;2022-08-19T04:33:42;18.40;92.40
38333;DHT22;25748;46.670;14.272;2022-08-19T04:36:18;18.40;92.50
38333;DHT22;25748;46.670;14.272;2022-08-19T04:38:46;18.40;92.60
38333;DHT22;25748;46.670;14.272;2022-08-19T04:41:12;18.40;92.60
38333;DHT22;25748;46.670;14.272;2022-08-19T04:43:56;18.40;92.80
38333;DHT22;25748;46.670;14.272;2022-08-19T04:46:22;18.40;93.00
38333;DHT22;25748;46.670;14.272;2022-08-19T04:48:47;18.40;93.00
38333;DHT22;25748;46.670;14.272;2022-08-19T04:51:13;18.50;92.90
38333;DHT22;25748;46.670;14.272;2022-08-19T04:53:41;18.50;92.80
38333;DHT22;25748;46.670;14.272;2022-08-19T04:56:08;18.50;92.80
38333;DHT22;25748;46.670;14.272;2022-08-19T04:58:36;18.50;92.80
38333;DHT22;25748;46.670;14.272;2022-08-19T05:01:03;18.50;92.90
38333;DHT22;25748;46.670;14.272;2022-08-19T05:03:29;18.50;92.90
38333;DHT22;25748;46.670;14.272;2022-08-19T05:06:04;18.50;92.80
38333;DHT22;25748;46.670;14.272;2022-08-19T05:08:32;18.50;92.80
38333;DHT22;25748;46.670;14.272;2022-08-19T05:10:59;18.50;92.70
38333;DHT22;25748;46.670;14.272;2022-08-19T05:13:25;18.60;92.80
38333;DHT22;25748;46.670;14.272;2022-08-19T05:15:56;18.60;92.80
38333;DHT22;25748;46.670;14.272;2022-08-19T05:18:23;18.60;92.70
38333;DHT22;25748;46.670;14.272;2022-08-19T05:21:12;18.60;92.70
38333;DHT22;25748;46.670;14.272;2022-08-19T05:23:57;18.70;92.80
38333;DHT22;25748;46.670;14.272;2022-08-19T05:26:24;18.70;92.60
38333;DHT22;25748;46.670;14.272;2022-08-19T05:28:52;18.60;92.70
38333;DHT22;25748;46.670;14.272;2022-08-19T05:31:18;18.70;92.80
38333;DHT22;25748;46.670;14.272;2022-08-19T05:33:43;18.70;92.60
38333;DHT22;25748;46.670;14.272;2022-08-19T05:36:09;18.70;92.50
38333;DHT22;25748;46.670;14.272;2022-08-19T05:38:35;18.70;92.50
38333;DHT22;25748;46.670;14.272;2022-08-19T05:41:08;18.70;92.50
38333;DHT22;25748;46.670;14.272;2022-08-19T05:43:34;18.70;92.40
38333;DHT22;25748;46.670;14.272;2022-08-19T05:46:00;18.70;92.30
38333;DHT22;25748;46.670;14.272;2022-08-19T05:48:26;18.70;92.30
38333;DHT22;25748;46.670;14.272;2022-08-19T05:50:52;18.70;92.20
38333;DHT22;25748;46.670;14.272;2022-08-19T05:53:18;18.70;92.20
38333;DHT22;25748;46.670;14.272;2022-08-19T05:55:44;18.70;92.00
38333;DHT22;25748;46.670;14.272;2022-08-19T05:58:10;18.80;91.90
38333;DHT22;25748;46.670;14.272;2022-08-19T06:00:37;18.70;91.80
38333;DHT22;25748;46.670;14.272;2022-08-19T06:03:03;18.80;91.60
38333;DHT22;25748;46.670;14.272;2022-08-19T06:05:32;18.80;91.60
38333;DHT22;25748;46.670;14.272;2022-08-19T06:07:57;18.80;91.70
38333;DHT22;25748;46.670;14.272;2022-08-19T06:10:30;18.80;91.70
38333;DHT22;25748;46.670;14.272;2022-08-19T06:12:56;18.80;91.50
38333;DHT22;25748;46.670;14.272;2022-08-19T06:15:22;18.80;91.60
38333;DHT22;25748;46.670;14.272;2022-08-19T06:17:51;18.90;91.70
38333;DHT22;25748;46.670;14.272;2022-08-19T06:20:17;18.90;91.80
38333;DHT22;25748;46.670;14.272;2022-08-19T06:22:46;18.90;91.70
38333;DHT22;25748;46.670;14.272;2022-08-19T06:25:13;19.00;91.70
38333;DHT22;25748;46.670;14.272;2022-08-19T06:27:40;19.00;91.80
38333;DHT22;25748;46.670;14.272;2022-08-19T06:30:09;19.10;92.30
38333;DHT22;25748;46.670;14.272;2022-08-19T06:32:35;19.20;92.00
38333;DHT22;25748;46.670;14.272;2022-08-19T06:35:01;19.20;91.40
38333;DHT22;25748;46.670;14.272;2022-08-19T06:37:27;19.30;90.80
38333;DHT22;25748;46.670;14.272;2022-08-19T06:39:53;19.30;90.40
38333;DHT22;25748;46.670;14.272;2022-08-19T06:42:24;19.30;90.10
38333;DHT22;25748;46.670;14.272;2022-08-19T06:44:50;19.30;90.00
38333;DHT22;25748;46.670;14.272;2022-08-19T06:47:19;19.40;89.70
38333;DHT22;25748;46.670;14.272;2022-08-19T06:49:45;19.50;90.00
38333;DHT22;25748;46.670;14.272;2022-08-19T06:52:12;19.50;90.00
38333;DHT22;25748;46.670;14.272;2022-08-19T06:54:38;19.60;89.40
38333;DHT22;25748;46.670;14.272;2022-08-19T06:57:05;19.60;89.40
38333;DHT22;25748;46.670;14.272;2022-08-19T06:59:32;19.70;89.80
38333;DHT22;25748;46.670;14.272;2022-08-19T07:02:00;19.80;89.40
38333;DHT22;25748;46.670;14.272;2022-08-19T07:04:29;19.90;88.60
38333;DHT22;25748;46.670;14.272;2022-08-19T07:07:15;20.00;88.60
38333;DHT22;25748;46.670;14.272;2022-08-19T07:09:42;20.20;88.80
38333;DHT22;25748;46.670;14.272;2022-08-19T07:12:11;20.40;88.70
38333;DHT22;25748;46.670;14.272;2022-08-19T07:14:38;20.40;85.60
38333;DHT22;25748;46.670;14.272;2022-08-19T07:17:10;20.60;85.90
38333;DHT22;25748;46.670;14.272;2022-08-19T07:19:38;20.80;84.90
38333;DHT22;25748;46.670;14.272;2022-08-19T07:22:05;21.00;84.80
38333;DHT22;25748;46.670;14.272;2022-08-19T07:24:32;21.10;82.10
38333;DHT22;25748;46.670;14.272;2022-08-19T07:27:01;21.20;82.10
38333;DHT22;25748;46.670;14.272;2022-08-19T07:29:28;21.40;81.40
38333;DHT22;25748;46.670;14.272;2022-08-19T07:31:55;21.70;80.10
38333;DHT22;25748;46.670;14.272;2022-08-19T07:34:23;21.80;77.90
38333;DHT22;25748;46.670;14.272;2022-08-19T07:36:49;22.00;76.40
38333;DHT22;25748;46.670;14.272;2022-08-19T07:39:36;22.00;73.60
38333;DHT22;25748;46.670;14.272;2022-08-19T07:42:07;22.10;73.80
38333;DHT22;25748;46.670;14.272;2022-08-19T07:44:33;22.10;72.50
38333;DHT22;25748;46.670;14.272;2022-08-19T07:47:00;22.20;72.80
38333;DHT22;25748;46.670;14.272;2022-08-19T07:49:26;22.20;71.10
38333;DHT22;25748;46.670;14.272;2022-08-19T07:52:05;22.30;69.70
38333;DHT22;25748;46.670;14.272;2022-08-19T07:54:33;22.50;71.00
38333;DHT22;25748;46.670;14.272;2022-08-19T07:57:03;22.80;68.50
38333;DHT22;25748;46.670;14.272;2022-08-19T07:59:30;22.90;66.80
38333;DHT22;25748;46.670;14.272;2022-08-19T08:01:56;23.20;67.80
38333;DHT22;25748;46.670;14.272;2022-08-19T08:04:22;23.50;63.80
38333;DHT22;25748;46.670;14.272;2022-08-19T08:07:07;23.70;62.90
38333;DHT22;25748;46.670;14.272;2022-08-19T08:09:52;23.90;62.40
38333;DHT22;25748;46.670;14.272;2022-08-19T08:12:35;24.10;60.00
38333;DHT22;25748;46.670;14.272;2022-08-19T08:15:14;24.20;59.00
38333;DHT22;25748;46.670;14.272;2022-08-19T08:17:44;24.20;58.00
38333;DHT22;25748;46.670;14.272;2022-08-19T08:20:12;24.30;58.40
38333;DHT22;25748;46.670;14.272;2022-08-19T08:22:44;24.20;57.50
38333;DHT22;25748;46.670;14.272;2022-08-19T08:25:29;24.20;58.00
38333;DHT22;25748;46.670;14.272;2022-08-19T08:27:55;24.20;57.90
38333;DHT22;25748;46.670;14.272;2022-08-19T08:30:23;24.20;57.10
38333;DHT22;25748;46.670;14.272;2022-08-19T08:32:50;24.10;57.00
38333;DHT22;25748;46.670;14.272;2022-08-19T08:35:20;23.90;57.80
38333;DHT22;25748;46.670;14.272;2022-08-19T08:37:48;24.10;58.10
38333;DHT22;25748;46.670;14.272;2022-08-19T08:40:37;24.20;57.60
38333;DHT22;25748;46.670;14.272;2022-08-19T08:43:06;24.20;57.30
38333;DHT22;25748;46.670;14.272;2022-08-19T08:45:43;24.30;56.70
38333;DHT22;25748;46.670;14.272;2022-08-19T08:48:20;24.40;57.00
38333;DHT22;25748;46.670;14.272;2022-08-19T08:50:50;24.40;57.60
38333;DHT22;25748;46.670;14.272;2022-08-19T08:53:19;24.50;57.70
38333;DHT22;25748;46.670;14.272;2022-08-19T08:55:46;24.60;57.40
38333;DHT22;25748;46.670;14.272;2022-08-19T08:58:36;24.70;56.70
38333;DHT22;25748;46.670;14.272;2022-08-19T09:01:09;24.80;55.80
38333;DHT22;25748;46.670;14.272;2022-08-19T09:03:37;25.00;55.70
38333;DHT22;25748;46.670;14.272;2022-08-19T09:06:40;25.10;55.10
38333;DHT22;25748;46.670;14.272;2022-08-19T09:09:26;25.30;55.20
38333;DHT22;25748;46.670;14.272;2022-08-19T09:14:50;25.60;54.60
38333;DHT22;25748;46.670;14.272;2022-08-19T09:17:26;25.70;53.40
38333;DHT22;25748;46.670;14.272;2022-08-19T09:20:04;26.00;52.70
38333;DHT22;25748;46.670;14.272;2022-08-19T09:22:34;26.20;52.30
38333;DHT22;25748;46.670;14.272;2022-08-19T09:25:00;26.30;51.60
38333;DHT22;25748;46.670;14.272;2022-08-19T09:27:27;26.20;51.50
38333;DHT22;25748;46.670;14.272;2022-08-19T09:29:54;26.10;51.20
38333;DHT22;25748;46.670;14.272;2022-08-19T09:32:21;26.10;51.10
38333;DHT22;25748;46.670;14.272;2022-08-19T09:34:47;26.00;51.60
38333;DHT22;25748;46.670;14.272;2022-08-19T09:37:13;26.00;52.30
38333;DHT22;25748;46.670;14.272;2022-08-19T09:39:39;25.90;51.90
38333;DHT22;25748;46.670;14.272;2022-08-19T09:42:08;25.90;51.50
38333;DHT22;25748;46.670;14.272;2022-08-19T09:44:39;25.90;51.60
38333;DHT22;25748;46.670;14.272;2022-08-19T09:47:05;25.90;51.80
38333;DHT22;25748;46.670;14.272;2022-08-19T09:49:33;25.80;51.80
38333;DHT22;25748;46.670;14.272;2022-08-19T09:51:59;25.70;52.00
38333;DHT22;25748;46.670;14.272;2022-08-19T09:54:25;25.60;52.10
38333;DHT22;25748;46.670;14.272;2022-08-19T09:56:52;25.60;51.90
38333;DHT22;25748;46.670;14.272;2022-08-19T09:59:18;25.70;51.90
38333;DHT22;25748;46.670;14.272;2022-08-19T10:01:44;25.70;51.60
38333;DHT22;25748;46.670;14.272;2022-08-19T10:04:10;25.50;52.00
38333;DHT22;25748;46.670;14.272;2022-08-19T10:06:38;25.70;52.30
38333;DHT22;25748;46.670;14.272;2022-08-19T10:09:06;25.60;51.30
38333;DHT22;25748;46.670;14.272;2022-08-19T10:11:33;25.50;51.30
38333;DHT22;25748;46.670;14.272;2022-08-19T10:14:00;25.50;51.00
38333;DHT22;25748;46.670;14.272;2022-08-19T10:16:26;25.40;50.80
38333;DHT22;25748;46.670;14.272;2022-08-19T10:18:53;25.30;50.80
38333;DHT22;25748;46.670;14.272;2022-08-19T10:21:32;25.20;50.80
38333;DHT22;25748;46.670;14.272;2022-08-19T10:24:02;25.10;51.00
38333;DHT22;25748;46.670;14.272;2022-08-19T10:26:35;25.00;51.40
38333;DHT22;25748;46.670;14.272;2022-08-19T10:29:03;25.00;52.00
38333;DHT22;25748;46.670;14.272;2022-08-19T10:31:31;25.00;51.90
38333;DHT22;25748;46.670;14.272;2022-08-19T10:33:58;25.00;51.90
38333;DHT22;25748;46.670;14.272;2022-08-19T10:36:26;25.00;51.60
38333;DHT22;25748;46.670;14.272;2022-08-19T10:38:55;24.90;51.70
38333;DHT22;25748;46.670;14.272;2022-08-19T10:41:26;24.90;51.70
38333;DHT22;25748;46.670;14.272;2022-08-19T10:43:54;24.90;52.40
38333;DHT22;25748;46.670;14.272;2022-08-19T10:46:21;24.80;52.20
38333;DHT22;25748;46.670;14.272;2022-08-19T10:48:48;24.70;52.40
38333;DHT22;25748;46.670;14.272;2022-08-19T10:51:14;24.60;52.50
38333;DHT22;25748;46.670;14.272;2022-08-19T10:53:59;24.60;52.80
38333;DHT22;25748;46.670;14.272;2022-08-19T10:56:25;24.50;53.00
38333;DHT22;25748;46.670;14.272;2022-08-19T10:59:10;24.40;53.30
38333;DHT22;25748;46.670;14.272;2022-08-19T11:01:38;24.30;53.70
38333;DHT22;25748;46.670;14.272;2022-08-19T11:04:04;24.30;54.20
38333;DHT22;25748;46.670;14.272;2022-08-19T11:06:33;24.30;54.40
38333;DHT22;25748;46.670;14.272;2022-08-19T11:08:59;24.20;54.70
38333;DHT22;25748;46.670;14.272;2022-08-19T11:11:26;24.20;54.70
38333;DHT22;25748;46.670;14.272;2022-08-19T11:13:53;24.10;54.90
38333;DHT22;25748;46.670;14.272;2022-08-19T11:16:24;24.00;54.70
38333;DHT22;25748;46.670;14.272;2022-08-19T11:18:53;23.80;54.50
38333;DHT22;25748;46.670;14.272;2022-08-19T11:21:24;23.70;54.80
38333;DHT22;25748;46.670;14.272;2022-08-19T11:23:52;23.60;55.30
38333;DHT22;25748;46.670;14.272;2022-08-19T11:26:20;23.50;55.50
38333;DHT22;25748;46.670;14.272;2022-08-19T11:28:47;23.50;55.60
38333;DHT22;25748;46.670;14.272;2022-08-19T11:31:15;23.50;55.80
38333;DHT22;25748;46.670;14.272;2022-08-19T11:33:41;23.40;55.90
38333;DHT22;25748;46.670;14.272;2022-08-19T11:36:07;23.40;56.40
38333;DHT22;25748;46.670;14.272;2022-08-19T11:38:34;23.40;56.30
38333;DHT22;25748;46.670;14.272;2022-08-19T11:41:04;23.40;56.50
38333;DHT22;25748;46.670;14.272;2022-08-19T11:43:30;23.30;56.40
38333;DHT22;25748;46.670;14.272;2022-08-19T11:45:57;23.30;56.30
38333;DHT22;25748;46.670;14.272;2022-08-19T11:48:24;23.30;55.60
38333;DHT22;25748;46.670;14.272;2022-08-19T11:50:51;23.30;55.70
38333;DHT22;25748;46.670;14.272;2022-08-19T11:53:22;23.40;56.50
38333;DHT22;25748;46.670;14.272;2022-08-19T11:55:48;23.40;56.50
38333;DHT22;25748;46.670;14.272;2022-08-19T11:58:16;23.60;56.20
38333;DHT22;25748;46.670;14.272;2022-08-19T12:00:43;23.70;55.60
38333;DHT22;25748;46.670;14.272;2022-08-19T12:03:11;23.70;55.00
38333;DHT22;25748;46.670;14.272;2022-08-19T12:05:38;23.70;54.40
38333;DHT22;25748;46.670;14.272;2022-08-19T12:08:06;23.70;54.60
38333;DHT22;25748;46.670;14.272;2022-08-19T12:10:32;23.70;54.70
38333;DHT22;25748;46.670;14.272;2022-08-19T12:12:59;23.60;55.60
38333;DHT22;25748;46.670;14.272;2022-08-19T12:15:26;23.60;55.30
38333;DHT22;25748;46.670;14.272;2022-08-19T12:17:53;23.50;55.30
38333;DHT22;25748;46.670;14.272;2022-08-19T12:20:22;23.40;55.50
38333;DHT22;25748;46.670;14.272;2022-08-19T12:22:49;23.30;55.60
38333;DHT22;25748;46.670;14.272;2022-08-19T12:25:14;23.10;55.90
38333;DHT22;25748;46.670;14.272;2022-08-19T12:27:40;23.10;56.20
38333;DHT22;25748;46.670;14.272;2022-08-19T12:30:08;22.90;56.20
38333;DHT22;25748;46.670;14.272;2022-08-19T12:32:34;22.80;56.40
38333;DHT22;25748;46.670;14.272;2022-08-19T12:35:00;22.70;56.60
38333;DHT22;25748;46.670;14.272;2022-08-19T12:37:26;22.60;56.30
38333;DHT22;25748;46.670;14.272;2022-08-19T12:39:52;22.50;56.70
38333;DHT22;25748;46.670;14.272;2022-08-19T12:42:18;22.40;56.80
38333;DHT22;25748;46.670;14.272;2022-08-19T12:44:44;22.30;56.80
38333;DHT22;25748;46.670;14.272;2022-08-19T12:47:12;22.10;56.70
38333;DHT22;25748;46.670;14.272;2022-08-19T12:49:40;22.00;57.10
38333;DHT22;25748;46.670;14.272;2022-08-19T12:52:08;21.90;57.30
38333;DHT22;25748;46.670;14.272;2022-08-19T12:54:36;21.90;57.80
38333;DHT22;25748;46.670;14.272;2022-08-19T12:57:07;21.70;58.00
38333;DHT22;25748;46.670;14.272;2022-08-19T12:59:34;21.70;58.10
38333;DHT22;25748;46.670;14.272;2022-08-19T13:02:05;21.70;58.10
38333;DHT22;25748;46.670;14.272;2022-08-19T13:04:33;21.60;58.40
38333;DHT22;25748;46.670;14.272;2022-08-19T13:07:02;21.60;58.90
38333;DHT22;25748;46.670;14.272;2022-08-19T13:09:28;21.50;59.40
38333;DHT22;25748;46.670;14.272;2022-08-19T13:11:54;21.50;59.70
38333;DHT22;25748;46.670;14.272;2022-08-19T13:14:19;21.50;59.80
38333;DHT22;25748;46.670;14.272;2022-08-19T13:16:45;21.40;60.30
38333;DHT22;25748;46.670;14.272;2022-08-19T13:19:11;21.30;60.60
38333;DHT22;25748;46.670;14.272;2022-08-19T13:21:38;21.30;61.00
38333;DHT22;25748;46.670;14.272;2022-08-19T13:24:04;21.20;61.80
38333;DHT22;25748;46.670;14.272;2022-08-19T13:26:30;21.20;62.20
38333;DHT22;25748;46.670;14.272;2022-08-19T13:28:56;21.20;62.80
38333;DHT22;25748;46.670;14.272;2022-08-19T13:31:41;21.20;63.50
38333;DHT22;25748;46.670;14.272;2022-08-19T13:34:31;21.10;64.40
38333;DHT22;25748;46.670;14.272;2022-08-19T13:36:58;21.10;65.40
38333;DHT22;25748;46.670;14.272;2022-08-19T13:39:24;21.00;66.20
38333;DHT22;25748;46.670;14.272;2022-08-19T13:41:50;21.00;66.40
38333;DHT22;25748;46.670;14.272;2022-08-19T13:44:17;21.00;66.70
38333;DHT22;25748;46.670;14.272;2022-08-19T13:46:47;21.00;66.80
38333;DHT22;25748;46.670;14.272;2022-08-19T13:49:14;21.00;67.00
38333;DHT22;25748;46.670;14.272;2022-08-19T13:51:42;21.00;66.70
38333;DHT22;25748;46.670;14.272;2022-08-19T13:54:09;21.00;66.80
38333;DHT22;25748;46.670;14.272;2022-08-19T13:56:42;21.00;67.20
38333;DHT22;25748;46.670;14.272;2022-08-19T13:59:09;21.00;67.80
38333;DHT22;25748;46.670;14.272;2022-08-19T14:01:35;21.00;68.60
38333;DHT22;25748;46.670;14.272;2022-08-19T14:04:01;21.10;67.70
38333;DHT22;25748;46.670;14.272;2022-08-19T14:06:27;21.20;68.30
38333;DHT22;25748;46.670;14.272;2022-08-19T14:08:53;21.40;67.40
38333;DHT22;25748;46.670;14.272;2022-08-19T14:11:19;21.60;65.00
38333;DHT22;25748;46.670;14.272;2022-08-19T14:13:44;21.70;64.10
38333;DHT22;25748;46.670;14.272;2022-08-19T14:16:12;21.90;63.00
38333;DHT22;25748;46.670;14.272;2022-08-19T14:18:39;22.00;63.20
38333;DHT22;25748;46.670;14.272;2022-08-19T14:21:06;22.10;63.50
38333;DHT22;25748;46.670;14.272;2022-08-19T14:23:32;22.20;62.20
38333;DHT22;25748;46.670;14.272;2022-08-19T14:26:09;22.30;62.00
38333;DHT22;25748;46.670;14.272;2022-08-19T14:28:37;22.50;63.10
38333;DHT22;25748;46.670;14.272;2022-08-19T14:31:02;22.60;62.20
38333;DHT22;25748;46.670;14.272;2022-08-19T14:33:28;22.60;61.50
38333;DHT22;25748;46.670;14.272;2022-08-19T14:35:54;22.70;60.10
38333;DHT22;25748;46.670;14.272;2022-08-19T14:38:20;22.80;61.00
38333;DHT22;25748;46.670;14.272;2022-08-19T14:40:45;22.90;60.70
38333;DHT22;25748;46.670;14.272;2022-08-19T14:43:12;23.00;60.10
38333;DHT22;25748;46.670;14.272;2022-08-19T14:45:39;23.00;59.90
38333;DHT22;25748;46.670;14.272;2022-08-19T14:48:06;22.90;59.60
38333;DHT22;25748;46.670;14.272;2022-08-19T14:50:34;23.00;59.50
38333;DHT22;25748;46.670;14.272;2022-08-19T14:53:07;23.10;59.30
38333;DHT22;25748;46.670;14.272;2022-08-19T14:55:34;23.00;59.30
38333;DHT22;25748;46.670;14.272;2022-08-19T14:58:00;23.00;59.20
38333;DHT22;25748;46.670;14.272;2022-08-19T15:00:26;23.10;59.20
38333;DHT22;25748;46.670;14.272;2022-08-19T15:02:55;23.10;59.20
38333;DHT22;25748;46.670;14.272;2022-08-19T15:05:21;23.10;59.00
38333;DHT22;25748;46.670;14.272;2022-08-19T15:07:47;23.20;58.90
38333;DHT22;25748;46.670;14.272;2022-08-19T15:10:14;23.10;59.10
38333;DHT22;25748;46.670;14.272;2022-08-19T15:12:40;23.20;59.00
38333;DHT22;25748;46.670;14.272;2022-08-19T15:15:10;23.20;59.20
38333;DHT22;25748;46.670;14.272;2022-08-19T15:17:39;23.20;58.80
38333;DHT22;25748;46.670;14.272;2022-08-19T15:20:09;23.10;58.50
38333;DHT22;25748;46.670;14.272;2022-08-19T15:22:35;23.10;58.30
38333;DHT22;25748;46.670;14.272;2022-08-19T15:25:03;23.00;58.60
38333;DHT22;25748;46.670;14.272;2022-08-19T15:27:29;23.00;58.30